sensor_id;sensor_type;location;lat;lon;timestamp;P1;durP1;ratioP1;P2;durP2;ratioP2
78668;SDS011;67984;45.118;20.724;2023-07-29T00:00:40;11.30;;;4.22;;
78668;SDS011;67984;45.118;20.724;2023-07-29T00:10:41;9.13;;;5.18;;
78668;SDS011;67984;45.118;20.724;2023-07-29T00:20:42;5.70;;;2.50;;
78668;SDS011;67984;45.118;20.724;2023-07-29T00:30:43;6.00;;;3.27;;
78668;SDS011;67984;45.118;20.724;2023-07-29T00:40:43;5.33;;;3.53;;
78668;SDS011;67984;45.118;20.724;2023-07-29T00:50:44;11.07;;;4.37;;
78668;SDS011;67984;45.118;20.724;2023-07-29T01:00:45;6.53;;;3.10;;
78668;SDS011;67984;45.118;20.724;2023-07-29T01:21:25;4.05;;;3.67;;
78668;SDS011;67984;45.118;20.724;2023-07-29T01:31:30;7.07;;;3.67;;
78668;SDS011;67984;45.118;20.724;2023-07-29T01:41:35;4.78;;;4.10;;
78668;SDS011;67984;45.118;20.724;2023-07-29T01:51:36;5.45;;;4.07;;
78668;SDS011;67984;45.118;20.724;2023-07-29T02:01:37;8.07;;;4.83;;
78668;SDS011;67984;45.118;20.724;2023-07-29T02:11:37;8.00;;;3.70;;
78668;SDS011;67984;45.118;20.724;2023-07-29T02:21:38;5.97;;;5.38;;
78668;SDS011;67984;45.118;20.724;2023-07-29T02:31:39;5.37;;;4.27;;
78668;SDS011;67984;45.118;20.724;2023-07-29T02:41:40;4.83;;;3.73;;
78668;SDS011;67984;45.118;20.724;2023-07-29T02:51:40;4.60;;;4.10;;
78668;SDS011;67984;45.118;20.724;2023-07-29T03:01:41;7.10;;;3.90;;
78668;SDS011;67984;45.118;20.724;2023-07-29T03:11:43;5.68;;;3.85;;
78668;SDS011;67984;45.118;20.724;2023-07-29T03:21:43;8.15;;;3.88;;
78668;SDS011;67984;45.118;20.724;2023-07-29T03:31:44;5.33;;;3.37;;
78668;SDS011;67984;45.118;20.724;2023-07-29T03:41:45;5.37;;;4.30;;
78668;SDS011;67984;45.118;20.724;2023-07-29T03:51:46;3.40;;;3.00;;
78668;SDS011;67984;45.118;20.724;2023-07-29T04:01:46;4.80;;;3.83;;
78668;SDS011;67984;45.118;20.724;2023-07-29T04:11:47;4.97;;;3.13;;
78668;SDS011;67984;45.118;20.724;2023-07-29T04:21:48;6.20;;;3.20;;
78668;SDS011;67984;45.118;20.724;2023-07-29T04:31:51;3.47;;;2.85;;
78668;SDS011;67984;45.118;20.724;2023-07-29T04:41:52;6.70;;;3.58;;
78668;SDS011;67984;45.118;20.724;2023-07-29T04:51:52;12.00;;;4.73;;
78668;SDS011;67984;45.118;20.724;2023-07-29T05:01:53;10.30;;;4.43;;
78668;SDS011;67984;45.118;20.724;2023-07-29T05:11:54;8.77;;;3.23;;
78668;SDS011;67984;45.118;20.724;2023-07-29T05:21:55;3.87;;;3.17;;
78668;SDS011;67984;45.118;20.724;2023-07-29T05:31:57;6.90;;;4.70;;
78668;SDS011;67984;45.118;20.724;2023-07-29T05:41:58;4.47;;;4.05;;
78668;SDS011;67984;45.118;20.724;2023-07-29T05:51:58;3.80;;;2.93;;
78668;SDS011;67984;45.118;20.724;2023-07-29T06:01:59;3.20;;;2.88;;
78668;SDS011;67984;45.118;20.724;2023-07-29T06:12:00;3.67;;;3.37;;
78668;SDS011;67984;45.118;20.724;2023-07-29T06:22:02;4.47;;;3.55;;
78668;SDS011;67984;45.118;20.724;2023-07-29T06:32:03;5.82;;;4.47;;
78668;SDS011;67984;45.118;20.724;2023-07-29T06:42:04;8.25;;;4.40;;
78668;SDS011;67984;45.118;20.724;2023-07-29T06:52:06;6.75;;;4.18;;
78668;SDS011;67984;45.118;20.724;2023-07-29T07:02:07;5.97;;;3.35;;
78668;SDS011;67984;45.118;20.724;2023-07-29T07:12:08;5.05;;;3.67;;
78668;SDS011;67984;45.118;20.724;2023-07-29T07:22:08;5.50;;;3.47;;
78668;SDS011;67984;45.118;20.724;2023-07-29T07:32:09;4.57;;;3.75;;
78668;SDS011;67984;45.118;20.724;2023-07-29T07:42:10;4.10;;;3.63;;
78668;SDS011;67984;45.118;20.724;2023-07-29T07:52:11;4.43;;;3.57;;
78668;SDS011;67984;45.118;20.724;2023-07-29T08:02:11;5.17;;;4.23;;
78668;SDS011;67984;45.118;20.724;2023-07-29T08:12:12;3.97;;;3.53;;
78668;SDS011;67984;45.118;20.724;2023-07-29T08:22:13;5.90;;;4.00;;
78668;SDS011;67984;45.118;20.724;2023-07-29T08:32:13;8.80;;;3.73;;
78668;SDS011;67984;45.118;20.724;2023-07-29T08:42:14;4.27;;;3.87;;
78668;SDS011;67984;45.118;20.724;2023-07-29T08:52:19;4.75;;;3.67;;
78668;SDS011;67984;45.118;20.724;2023-07-29T09:02:20;3.97;;;3.08;;
78668;SDS011;67984;45.118;20.724;2023-07-29T09:12:21;3.83;;;2.87;;
78668;SDS011;67984;45.118;20.724;2023-07-29T09:22:23;4.25;;;3.50;;
78668;SDS011;67984;45.118;20.724;2023-07-29T09:32:25;3.90;;;1.60;;
78668;SDS011;67984;45.118;20.724;2023-07-29T09:42:26;3.43;;;3.13;;
78668;SDS011;67984;45.118;20.724;2023-07-29T09:52:26;2.93;;;2.63;;
78668;SDS011;67984;45.118;20.724;2023-07-29T10:02:28;11.93;;;2.65;;
78668;SDS011;67984;45.118;20.724;2023-07-29T10:12:30;6.70;;;2.85;;
78668;SDS011;67984;45.118;20.724;2023-07-29T10:22:42;2.90;;;1.67;;
78668;SDS011;67984;45.118;20.724;2023-07-29T10:32:44;4.90;;;2.83;;
78668;SDS011;67984;45.118;20.724;2023-07-29T10:43:32;5.63;;;1.73;;
78668;SDS011;67984;45.118;20.724;2023-07-29T10:53:11;2.72;;;1.92;;
78668;SDS011;67984;45.118;20.724;2023-07-29T11:03:13;2.17;;;2.07;;
78668;SDS011;67984;45.118;20.724;2023-07-29T11:13:17;3.35;;;2.17;;
78668;SDS011;67984;45.118;20.724;2023-07-29T11:23:18;4.93;;;2.63;;
78668;SDS011;67984;45.118;20.724;2023-07-29T11:43:24;2.83;;;2.63;;
78668;SDS011;67984;45.118;20.724;2023-07-29T12:03:26;5.13;;;2.67;;
78668;SDS011;67984;45.118;20.724;2023-07-29T12:13:27;2.65;;;2.42;;
78668;SDS011;67984;45.118;20.724;2023-07-29T12:23:28;5.18;;;2.67;;
78668;SDS011;67984;45.118;20.724;2023-07-29T12:33:33;7.45;;;2.88;;
78668;SDS011;67984;45.118;20.724;2023-07-29T12:43:36;4.72;;;2.88;;
78668;SDS011;67984;45.118;20.724;2023-07-29T12:53:38;2.67;;;2.45;;
78668;SDS011;67984;45.118;20.724;2023-07-29T13:03:39;2.35;;;2.10;;
78668;SDS011;67984;45.118;20.724;2023-07-29T13:13:40;4.30;;;2.50;;
78668;SDS011;67984;45.118;20.724;2023-07-29T13:23:40;3.37;;;2.60;;
78668;SDS011;67984;45.118;20.724;2023-07-29T13:33:41;5.23;;;2.57;;
78668;SDS011;67984;45.118;20.724;2023-07-29T13:43:42;3.27;;;2.63;;
78668;SDS011;67984;45.118;20.724;2023-07-29T13:53:42;39.77;;;6.87;;
78668;SDS011;67984;45.118;20.724;2023-07-29T14:03:43;4.07;;;2.83;;
78668;SDS011;67984;45.118;20.724;2023-07-29T14:13:44;8.10;;;2.20;;
78668;SDS011;67984;45.118;20.724;2023-07-29T14:23:44;3.73;;;2.97;;
78668;SDS011;67984;45.118;20.724;2023-07-29T14:33:45;2.70;;;2.27;;
78668;SDS011;67984;45.118;20.724;2023-07-29T14:43:46;3.83;;;2.03;;
78668;SDS011;67984;45.118;20.724;2023-07-29T14:53:46;3.35;;;2.72;;
78668;SDS011;67984;45.118;20.724;2023-07-29T15:03:47;5.93;;;3.00;;
78668;SDS011;67984;45.118;20.724;2023-07-29T15:13:48;5.13;;;3.35;;
78668;SDS011;67984;45.118;20.724;2023-07-29T15:23:49;4.93;;;3.00;;
78668;SDS011;67984;45.118;20.724;2023-07-29T15:33:49;7.88;;;2.90;;
78668;SDS011;67984;45.118;20.724;2023-07-29T15:43:50;3.73;;;3.33;;
78668;SDS011;67984;45.118;20.724;2023-07-29T15:53:51;3.40;;;3.10;;
78668;SDS011;67984;45.118;20.724;2023-07-29T16:13:52;4.15;;;3.75;;
78668;SDS011;67984;45.118;20.724;2023-07-29T16:23:53;4.43;;;4.03;;
78668;SDS011;67984;45.118;20.724;2023-07-29T16:43:54;5.18;;;3.55;;
78668;SDS011;67984;45.118;20.724;2023-07-29T16:53:55;5.60;;;3.60;;
78668;SDS011;67984;45.118;20.724;2023-07-29T17:03:56;5.13;;;4.22;;
78668;SDS011;67984;45.118;20.724;2023-07-29T17:13:57;15.70;;;4.40;;
78668;SDS011;67984;45.118;20.724;2023-07-29T17:23:57;7.97;;;4.47;;
78668;SDS011;67984;45.118;20.724;2023-07-29T17:34:00;5.18;;;3.92;;
78668;SDS011;67984;45.118;20.724;2023-07-29T17:44:00;12.53;;;4.77;;
78668;SDS011;67984;45.118;20.724;2023-07-29T17:54:01;10.20;;;5.73;;
78668;SDS011;67984;45.118;20.724;2023-07-29T18:04:02;10.77;;;5.70;;
78668;SDS011;67984;45.118;20.724;2023-07-29T18:14:02;8.73;;;4.40;;
78668;SDS011;67984;45.118;20.724;2023-07-29T18:24:03;12.75;;;5.40;;
78668;SDS011;67984;45.118;20.724;2023-07-29T18:34:05;8.40;;;3.88;;
78668;SDS011;67984;45.118;20.724;2023-07-29T18:44:06;6.43;;;4.73;;
78668;SDS011;67984;45.118;20.724;2023-07-29T18:54:07;7.68;;;4.97;;
78668;SDS011;67984;45.118;20.724;2023-07-29T19:04:08;12.05;;;5.40;;
78668;SDS011;67984;45.118;20.724;2023-07-29T19:14:09;7.85;;;4.75;;
78668;SDS011;67984;45.118;20.724;2023-07-29T19:24:10;7.87;;;5.60;;
78668;SDS011;67984;45.118;20.724;2023-07-29T19:34:11;9.00;;;5.57;;
78668;SDS011;67984;45.118;20.724;2023-07-29T19:44:11;10.23;;;5.53;;
78668;SDS011;67984;45.118;20.724;2023-07-29T19:54:12;8.60;;;4.37;;
78668;SDS011;67984;45.118;20.724;2023-07-29T20:04:13;8.73;;;5.50;;
78668;SDS011;67984;45.118;20.724;2023-07-29T20:14:13;10.87;;;4.83;;
78668;SDS011;67984;45.118;20.724;2023-07-29T20:24:14;12.37;;;6.53;;
78668;SDS011;67984;45.118;20.724;2023-07-29T20:34:15;9.20;;;8.03;;
78668;SDS011;67984;45.118;20.724;2023-07-29T20:44:15;12.30;;;6.53;;
78668;SDS011;67984;45.118;20.724;2023-07-29T20:54:16;13.30;;;8.63;;
78668;SDS011;67984;45.118;20.724;2023-07-29T21:04:17;16.30;;;8.43;;
78668;SDS011;67984;45.118;20.724;2023-07-29T21:14:18;15.10;;;8.87;;
78668;SDS011;67984;45.118;20.724;2023-07-29T21:24:18;19.33;;;8.70;;
78668;SDS011;67984;45.118;20.724;2023-07-29T21:34:19;26.17;;;10.00;;
78668;SDS011;67984;45.118;20.724;2023-07-29T21:44:20;33.30;;;13.23;;
78668;SDS011;67984;45.118;20.724;2023-07-29T21:54:20;79.30;;;27.20;;
78668;SDS011;67984;45.118;20.724;2023-07-29T22:04:21;54.17;;;22.03;;
78668;SDS011;67984;45.118;20.724;2023-07-29T22:14:22;59.70;;;24.73;;
78668;SDS011;67984;45.118;20.724;2023-07-29T22:24:23;179.53;;;60.83;;
78668;SDS011;67984;45.118;20.724;2023-07-29T22:34:23;65.00;;;23.80;;
78668;SDS011;67984;45.118;20.724;2023-07-29T22:44:24;40.10;;;15.97;;
78668;SDS011;67984;45.118;20.724;2023-07-29T22:54:25;38.03;;;19.33;;
78668;SDS011;67984;45.118;20.724;2023-07-29T23:04:25;24.77;;;13.90;;
78668;SDS011;67984;45.118;20.724;2023-07-29T23:14:26;31.27;;;15.60;;
78668;SDS011;67984;45.118;20.724;2023-07-29T23:24:27;21.93;;;12.87;;
78668;SDS011;67984;45.118;20.724;2023-07-29T23:34:28;17.50;;;12.23;;
78668;SDS011;67984;45.118;20.724;2023-07-29T23:44:28;10.97;;;9.30;;
78668;SDS011;67984;45.118;20.724;2023-07-29T23:54:29;9.67;;;7.30;;
